createdAt,value
2022-09-07T00:01:52.878Z,21.03
2022-09-07T00:03:58.455Z,20.99
2022-09-07T00:06:09.128Z,20.98
2022-09-07T00:08:14.197Z,20.99
2022-09-07T00:10:19.209Z,20.97
2022-09-07T00:12:24.233Z,20.94
2022-09-07T00:14:28.887Z,20.91
2022-09-07T00:16:36.581Z,20.92
2022-09-07T00:18:45.817Z,20.93
2022-09-07T00:21:00.820Z,20.96
2022-09-07T00:23:05.867Z,20.93
2022-09-07T00:25:11.905Z,20.93
2022-09-07T00:27:16.937Z,20.93
2022-09-07T00:29:21.874Z,20.90
2022-09-07T00:31:27.073Z,20.90
2022-09-07T00:33:34.746Z,20.85
2022-09-07T00:35:43.402Z,20.81
2022-09-07T00:37:49.418Z,20.75
2022-09-07T00:39:54.971Z,20.73
2022-09-07T00:41:59.958Z,20.74
2022-09-07T00:44:34.682Z,20.76
2022-09-07T00:46:39.723Z,20.74
2022-09-07T00:48:53.804Z,20.73
2022-09-07T00:51:04.480Z,20.73
2022-09-07T00:53:13.790Z,20.72
2022-09-07T00:55:20.071Z,20.69
2022-09-07T00:57:28.265Z,20.65
2022-09-07T00:59:37.771Z,20.64
2022-09-07T01:01:43.125Z,20.60
2022-09-07T01:03:54.121Z,20.56
2022-09-07T01:06:02.328Z,20.48
2022-09-07T01:08:07.950Z,20.46
2022-09-07T01:10:13.241Z,20.47
2022-09-07T01:12:18.230Z,20.46
2022-09-07T01:14:25.747Z,20.48
2022-09-07T01:16:44.030Z,20.49
2022-09-07T01:18:59.804Z,20.45
2022-09-07T01:21:25.386Z,20.49
2022-09-07T01:24:07.067Z,20.48
2022-09-07T01:26:40.813Z,20.48
2022-09-07T01:28:54.924Z,20.48
2022-09-07T01:31:01.990Z,20.47
2022-09-07T01:33:18.864Z,20.47
2022-09-07T01:35:29.334Z,20.45
2022-09-07T01:37:43.967Z,20.41
2022-09-07T01:39:54.622Z,20.34
2022-09-07T01:42:04.242Z,20.35
2022-09-07T01:44:15.533Z,20.35
2022-09-07T01:46:27.756Z,20.34
2022-09-07T01:48:36.655Z,20.26
2022-09-07T01:50:45.615Z,20.26
2022-09-07T01:52:56.820Z,20.27
2022-09-07T01:55:06.429Z,20.27
2022-09-07T01:57:18.311Z,20.27
2022-09-07T01:59:32.239Z,20.21
2022-09-07T02:01:43.228Z,20.18
2022-09-07T02:03:51.653Z,20.18
2022-09-07T02:06:02.136Z,20.19
2022-09-07T02:08:13.022Z,20.19
2022-09-07T02:10:21.492Z,20.21
2022-09-07T02:12:35.073Z,20.22
2022-09-07T02:14:51.936Z,20.21
2022-09-07T02:17:03.420Z,20.24
2022-09-07T02:19:13.377Z,20.24
2022-09-07T02:21:22.302Z,20.25
2022-09-07T02:23:31.118Z,20.20
2022-09-07T02:25:40.661Z,20.20
2022-09-07T02:27:50.254Z,20.18
2022-09-07T02:29:58.082Z,20.15
2022-09-07T02:32:03.133Z,20.10
2022-09-07T02:34:07.978Z,20.05
2022-09-07T02:36:16.143Z,20.05
2022-09-07T02:38:22.023Z,20.04
2022-09-07T02:40:26.947Z,20.05
2022-09-07T02:42:35.087Z,20.06
2022-09-07T02:44:45.669Z,20.06
2022-09-07T02:47:08.388Z,20.09
2022-09-07T02:49:28.057Z,20.07
2022-09-07T02:51:39.897Z,20.09
2022-09-07T02:54:08.717Z,20.09
2022-09-07T02:56:26.095Z,20.04
2022-09-07T02:58:37.736Z,20.04
2022-09-07T03:00:47.802Z,20.03
2022-09-07T03:03:02.962Z,20.03
2022-09-07T03:05:14.842Z,20.00
2022-09-07T03:07:23.625Z,19.95
2022-09-07T03:09:33.896Z,19.89
2022-09-07T03:11:39.914Z,19.83
2022-09-07T03:13:45.062Z,19.82
2022-09-07T03:15:53.620Z,19.77
2022-09-07T03:18:03.239Z,19.78
2022-09-07T03:20:08.927Z,19.77
2022-09-07T03:22:16.717Z,19.78
2022-09-07T03:24:21.780Z,19.80
2022-09-07T03:26:27.502Z,19.75
2022-09-07T03:28:32.462Z,19.74
2022-09-07T03:30:37.839Z,19.74
2022-09-07T03:32:43.014Z,19.74
2022-09-07T03:34:50.451Z,19.68
2022-09-07T03:36:55.478Z,19.71
2022-09-07T03:39:01.252Z,19.74
2022-09-07T03:41:09.060Z,19.78
2022-09-07T03:43:14.074Z,19.77
2022-09-07T03:45:19.538Z,19.79
2022-09-07T03:47:24.503Z,19.79
2022-09-07T03:49:29.444Z,19.80
2022-09-07T03:51:37.021Z,19.82
2022-09-07T03:53:44.052Z,19.77
2022-09-07T03:55:59.038Z,19.74
2022-09-07T03:58:03.946Z,19.67
2022-09-07T04:00:10.013Z,19.66
2022-09-07T04:02:18.183Z,19.66
2022-09-07T04:04:23.294Z,19.66
2022-09-07T04:06:28.603Z,19.65
2022-09-07T04:08:38.550Z,19.61
2022-09-07T04:10:43.659Z,19.54
2022-09-07T04:12:49.498Z,19.48
2022-09-07T04:14:54.628Z,19.50
2022-09-07T04:16:59.693Z,19.52
2022-09-07T04:19:04.925Z,19.57
2022-09-07T04:21:10.345Z,19.59
2022-09-07T04:23:15.612Z,19.66
2022-09-07T04:25:23.458Z,19.53
2022-09-07T04:27:28.470Z,19.38
2022-09-07T04:29:33.669Z,19.34
2022-09-07T04:31:39.337Z,19.34
2022-09-07T04:33:45.108Z,19.41
2022-09-07T04:35:50.052Z,19.50
2022-09-07T04:37:55.021Z,19.53
2022-09-07T04:40:00.000Z,19.58
2022-09-07T04:42:07.835Z,19.66
2022-09-07T04:44:16.736Z,19.74
2022-09-07T04:46:24.173Z,19.82
2022-09-07T04:48:29.370Z,19.90
2022-09-07T04:50:34.844Z,19.95
2022-09-07T04:52:40.034Z,20.00
2022-09-07T04:54:45.180Z,20.03
2022-09-07T04:56:50.163Z,19.97
2022-09-07T04:58:57.664Z,19.80
2022-09-07T05:01:04.787Z,19.74
2022-09-07T05:03:09.874Z,19.63
2022-09-07T05:05:14.754Z,19.64
2022-09-07T05:07:19.734Z,19.70
2022-09-07T05:09:24.756Z,19.79
2022-09-07T05:11:30.878Z,19.86
2022-09-07T05:13:35.820Z,19.93
2022-09-07T05:15:43.396Z,20.01
2022-09-07T05:17:50.258Z,20.06
2022-09-07T05:19:55.262Z,20.15
2022-09-07T05:22:00.357Z,20.18
2022-09-07T05:24:06.961Z,20.24
2022-09-07T05:26:12.787Z,20.31
2022-09-07T05:28:19.596Z,20.40
2022-09-07T05:32:52.871Z,20.49
2022-09-07T05:34:58.234Z,20.44
2022-09-07T05:37:04.101Z,20.42
2022-09-07T05:39:09.881Z,20.42
2022-09-07T05:41:16.381Z,20.45
2022-09-07T05:43:22.014Z,20.49
2022-09-07T05:45:26.994Z,20.50
2022-09-07T05:47:32.482Z,20.50
2022-09-07T05:49:40.240Z,20.54
2022-09-07T05:51:45.167Z,20.56
2022-09-07T05:53:50.774Z,20.61
2022-09-07T05:55:55.703Z,20.68
2022-09-07T05:58:00.788Z,20.71
2022-09-07T06:00:06.345Z,20.71
2022-09-07T06:02:17.604Z,20.71
2022-09-07T06:04:22.707Z,20.75
2022-09-07T06:06:30.135Z,20.70
2022-09-07T06:08:36.274Z,20.73
2022-09-07T06:12:49.395Z,20.78
2022-09-07T06:14:54.806Z,20.78
2022-09-07T06:16:59.468Z,20.78
2022-09-07T06:19:07.815Z,20.86
2022-09-07T06:21:14.122Z,20.91
2022-09-07T06:23:21.835Z,21.00
2022-09-07T06:25:26.826Z,21.07
2022-09-07T06:27:31.821Z,21.14
2022-09-07T06:29:36.849Z,21.25
2022-09-07T06:34:07.328Z,21.39
2022-09-07T06:36:15.734Z,21.41
2022-09-07T06:38:23.205Z,21.50
2022-09-07T06:40:28.208Z,21.58
2022-09-07T06:42:33.114Z,21.63
2022-09-07T06:44:38.114Z,21.67
2022-09-07T06:49:08.246Z,21.73
2022-09-07T06:51:15.351Z,21.75
2022-09-07T06:53:35.613Z,21.79
2022-09-07T06:55:50.273Z,21.80
2022-09-07T06:57:55.706Z,21.82
2022-09-07T07:00:00.636Z,21.82
2022-09-07T07:02:05.470Z,21.81
2022-09-07T07:04:10.472Z,21.84
2022-09-07T07:06:16.280Z,21.84
2022-09-07T07:08:21.316Z,21.95
2022-09-07T07:10:26.345Z,21.98
2022-09-07T07:14:44.888Z,22.17
2022-09-07T07:16:50.225Z,22.22
2022-09-07T07:18:58.082Z,22.25
2022-09-07T07:21:05.714Z,22.32
2022-09-07T07:23:11.255Z,22.36
2022-09-07T07:25:16.615Z,22.41
2022-09-07T07:27:21.658Z,22.45
2022-09-07T07:29:29.139Z,22.55
2022-09-07T07:31:36.349Z,22.56
2022-09-07T07:33:41.659Z,22.58
2022-09-07T07:35:46.644Z,22.59
2022-09-07T07:40:23.488Z,22.59
2022-09-07T07:42:30.359Z,22.58
2022-09-07T07:44:37.923Z,22.57
2022-09-07T07:46:43.188Z,22.57
2022-09-07T07:48:51.239Z,22.58
2022-09-07T07:51:04.362Z,22.64
2022-09-07T07:55:44.187Z,22.69
2022-09-07T07:57:50.166Z,22.70
2022-09-07T07:59:57.682Z,22.74
2022-09-07T08:02:05.001Z,22.77
2022-09-07T08:04:10.477Z,22.80
2022-09-07T08:06:17.422Z,22.86
2022-09-07T08:08:23.070Z,22.93
2022-09-07T08:10:29.700Z,22.99
2022-09-07T08:12:34.548Z,23.09
2022-09-07T08:14:41.087Z,23.12
2022-09-07T08:16:49.337Z,23.24
2022-09-07T08:18:54.199Z,23.31
2022-09-07T08:21:03.085Z,23.40
2022-09-07T08:23:08.231Z,23.47
2022-09-07T08:25:13.015Z,23.52
2022-09-07T08:27:21.446Z,23.61
2022-09-07T08:29:27.234Z,23.71
2022-09-07T08:31:32.119Z,23.77
2022-09-07T08:33:41.343Z,23.82
2022-09-07T08:35:46.362Z,23.86
2022-09-07T08:37:50.855Z,23.90
2022-09-07T08:39:55.708Z,23.99
2022-09-07T08:42:14.455Z,24.06
2022-09-07T08:44:24.992Z,24.17
2022-09-07T08:46:33.858Z,24.27
2022-09-07T08:48:43.075Z,24.37
2022-09-07T08:50:56.350Z,24.50
2022-09-07T08:53:05.849Z,24.58
2022-09-07T08:55:17.428Z,24.66
2022-09-07T08:57:29.709Z,24.76
2022-09-07T08:59:43.551Z,24.89
2022-09-07T09:02:27.008Z,24.92
2022-09-07T09:04:25.512Z,24.93
2022-09-07T09:06:42.431Z,24.99
2022-09-07T09:09:04.629Z,25.10
2022-09-07T09:11:14.840Z,25.12
2022-09-07T09:13:22.569Z,25.19
2022-09-07T09:15:38.757Z,25.27
2022-09-07T09:17:50.082Z,25.36
2022-09-07T09:20:05.744Z,25.38
2022-09-07T09:22:16.307Z,25.37
2022-09-07T09:24:22.343Z,25.46
2022-09-07T09:26:29.149Z,25.56
2022-09-07T09:28:34.176Z,25.61
2022-09-07T09:30:39.078Z,25.67
2022-09-07T09:32:45.387Z,25.75
2022-09-07T09:35:04.048Z,25.83
2022-09-07T09:37:14.083Z,25.94
2022-09-07T09:39:28.869Z,26.01
2022-09-07T09:41:39.620Z,26.09
2022-09-07T09:43:47.980Z,26.13
2022-09-07T09:48:23.222Z,26.34
2022-09-07T09:53:04.238Z,26.42
2022-09-07T09:55:33.697Z,26.59
2022-09-07T10:00:27.969Z,27.19
2022-09-07T10:05:00.048Z,27.25
2022-09-07T10:07:20.964Z,27.15
2022-09-07T10:09:29.017Z,27.07
2022-09-07T10:14:21.966Z,26.95
2022-09-07T10:16:41.321Z,26.99
2022-09-07T10:18:58.668Z,27.05
2022-09-07T10:21:31.291Z,27.02
2022-09-07T10:23:38.858Z,27.08
2022-09-07T10:25:47.562Z,27.16
2022-09-07T10:28:04.397Z,27.48
2022-09-07T10:30:16.458Z,27.66
2022-09-07T10:32:35.006Z,27.63
2022-09-07T10:34:51.507Z,27.87
2022-09-07T10:37:04.482Z,28.12
2022-09-07T10:39:17.786Z,28.29
2022-09-07T10:41:31.098Z,28.41
2022-09-07T10:43:45.625Z,28.55
2022-09-07T10:48:54.425Z,28.56
2022-09-07T10:51:09.830Z,28.55
2022-09-07T10:53:40.668Z,28.38
2022-09-07T10:56:00.823Z,28.10
2022-09-07T10:59:01.343Z,27.93
2022-09-07T11:01:02.262Z,28.12
2022-09-07T11:03:27.372Z,28.26
2022-09-07T11:05:40.508Z,28.07
2022-09-07T11:08:02.176Z,27.97
2022-09-07T11:10:18.242Z,27.48
2022-09-07T11:12:30.940Z,27.25
2022-09-07T11:14:42.034Z,27.00
2022-09-07T11:16:54.571Z,26.80
2022-09-07T11:24:03.840Z,26.65
2022-09-07T11:26:15.870Z,26.51
2022-09-07T11:28:27.582Z,26.59
2022-09-07T11:30:35.838Z,26.83
2022-09-07T11:32:45.261Z,26.98
2022-09-07T11:34:55.441Z,27.05
2022-09-07T11:37:05.757Z,27.30
2022-09-07T11:39:19.990Z,27.55
2022-09-07T11:41:31.854Z,27.70
2022-09-07T11:43:45.834Z,27.76
2022-09-07T11:45:55.209Z,27.81
2022-09-07T11:48:06.139Z,27.94
2022-09-07T11:50:18.875Z,28.04
2022-09-07T11:52:34.061Z,27.98
2022-09-07T11:54:48.551Z,27.94
2022-09-07T11:56:57.597Z,27.86
2022-09-07T11:59:26.935Z,27.81
2022-09-07T12:01:46.032Z,27.69
2022-09-07T12:04:23.656Z,27.66
2022-09-07T12:06:50.794Z,27.52
2022-09-07T12:09:07.267Z,27.45
2022-09-07T12:11:44.884Z,27.52
2022-09-07T12:14:03.289Z,27.65
2022-09-07T12:16:18.900Z,27.79
2022-09-07T12:18:41.452Z,27.85
2022-09-07T12:20:47.698Z,27.91
2022-09-07T12:23:04.603Z,27.90
2022-09-07T12:25:12.157Z,27.87
2022-09-07T12:27:42.115Z,28.02
2022-09-07T12:29:46.942Z,28.18
2022-09-07T12:32:07.262Z,28.34
2022-09-07T12:34:42.671Z,28.51
2022-09-07T12:36:53.566Z,28.66
2022-09-07T12:39:25.202Z,28.79
2022-09-07T12:41:49.771Z,28.67
2022-09-07T12:44:11.211Z,28.66
2022-09-07T12:46:23.088Z,28.57
2022-09-07T12:48:43.656Z,28.53
2022-09-07T12:50:59.854Z,28.56
2022-09-07T12:53:27.171Z,28.58
2022-09-07T12:56:18.920Z,28.50
2022-09-07T12:58:37.573Z,28.37
2022-09-07T13:00:57.878Z,28.38
2022-09-07T13:06:06.035Z,28.09
2022-09-07T13:08:41.964Z,27.96
2022-09-07T13:10:47.647Z,27.81
2022-09-07T13:12:54.165Z,27.73
2022-09-07T13:15:02.168Z,27.79
2022-09-07T13:17:38.864Z,27.84
2022-09-07T13:20:23.654Z,27.86
2022-09-07T13:22:59.734Z,27.87
2022-09-07T13:25:06.278Z,27.85
2022-09-07T13:27:47.346Z,27.86
2022-09-07T13:29:56.439Z,27.97
2022-09-07T13:32:12.146Z,28.13
2022-09-07T13:34:32.742Z,28.18
2022-09-07T13:36:43.384Z,28.24
2022-09-07T13:38:55.084Z,28.34
2022-09-07T13:41:06.891Z,28.40
2022-09-07T13:43:19.226Z,28.51
2022-09-07T13:45:33.352Z,28.56
2022-09-07T13:47:55.152Z,28.56
2022-09-07T13:50:11.547Z,28.65
2022-09-07T13:52:21.010Z,28.64
2022-09-07T13:54:39.022Z,28.70
2022-09-07T13:56:53.141Z,28.85
2022-09-07T13:58:58.537Z,28.96
2022-09-07T14:01:07.276Z,28.99
2022-09-07T14:03:19.603Z,28.97
2022-09-07T14:05:24.888Z,28.87
2022-09-07T14:07:31.310Z,28.86
2022-09-07T14:09:38.725Z,28.98
2022-09-07T14:11:45.826Z,29.16
2022-09-07T14:14:19.033Z,29.39
2022-09-07T14:16:24.064Z,29.59
2022-09-07T14:18:33.327Z,29.67
2022-09-07T14:20:43.380Z,29.81
2022-09-07T14:22:53.009Z,29.95
2022-09-07T14:25:03.188Z,29.98
2022-09-07T14:27:09.816Z,30.14
2022-09-07T14:29:24.866Z,30.25
2022-09-07T14:31:30.689Z,30.17
2022-09-07T14:33:35.982Z,30.11
2022-09-07T14:35:42.274Z,30.15
2022-09-07T14:37:50.988Z,30.21
2022-09-07T14:39:56.621Z,30.31
2022-09-07T14:42:05.548Z,30.40
2022-09-07T14:44:30.196Z,30.47
2022-09-07T14:46:36.967Z,30.51
2022-09-07T14:48:42.868Z,30.55
2022-09-07T14:51:05.817Z,30.59
2022-09-07T14:53:36.301Z,30.56
2022-09-07T14:55:47.199Z,30.54
2022-09-07T14:58:11.209Z,30.25
2022-09-07T15:00:30.652Z,30.27
2022-09-07T15:02:38.782Z,30.26
2022-09-07T15:04:43.620Z,30.30
2022-09-07T15:07:03.877Z,30.13
2022-09-07T15:09:09.352Z,30.20
2022-09-07T15:13:46.998Z,30.14
2022-09-07T15:16:01.319Z,30.18
2022-09-07T15:18:09.200Z,30.15
2022-09-07T15:20:36.567Z,30.29
2022-09-07T15:22:41.343Z,30.42
2022-09-07T15:24:46.243Z,30.52
2022-09-07T15:27:08.514Z,30.61
2022-09-07T15:29:20.542Z,30.69
2022-09-07T15:31:43.404Z,30.74
2022-09-07T15:33:51.105Z,30.76
2022-09-07T15:35:58.748Z,30.89
2022-09-07T15:38:05.265Z,31.05
2022-09-07T15:40:20.572Z,30.95
2022-09-07T15:44:53.622Z,30.80
2022-09-07T15:49:24.174Z,31.03
2022-09-07T15:56:20.332Z,30.62
2022-09-07T15:58:25.342Z,30.41
2022-09-07T16:00:32.967Z,30.16
2022-09-07T16:05:04.141Z,29.80
2022-09-07T16:07:09.126Z,29.87
2022-09-07T16:09:15.597Z,29.82
2022-09-07T16:11:24.236Z,29.79
2022-09-07T16:13:31.457Z,29.70
2022-09-07T16:15:45.676Z,29.68
2022-09-07T16:17:53.984Z,29.52
2022-09-07T16:20:02.093Z,29.38
2022-09-07T16:22:07.344Z,29.23
2022-09-07T16:24:12.782Z,29.15
2022-09-07T16:26:19.259Z,29.10
2022-09-07T16:28:24.132Z,28.91
2022-09-07T16:30:28.717Z,28.74
2022-09-07T16:32:51.752Z,28.71
2022-09-07T16:34:56.576Z,28.59
2022-09-07T16:37:01.319Z,28.59
2022-09-07T16:39:06.227Z,28.52
2022-09-07T16:41:15.131Z,28.37
2022-09-07T16:43:20.063Z,28.31
2022-09-07T16:47:52.965Z,28.30
2022-09-07T16:49:58.193Z,28.28
2022-09-07T16:52:03.088Z,28.19
2022-09-07T16:54:08.724Z,28.10
2022-09-07T16:56:16.959Z,28.01
2022-09-07T16:58:37.876Z,27.90
2022-09-07T17:00:42.918Z,27.84
2022-09-07T17:02:47.725Z,27.81
2022-09-07T17:04:55.093Z,27.78
2022-09-07T17:06:59.920Z,27.72
2022-09-07T17:09:04.657Z,27.66
2022-09-07T17:11:11.336Z,27.63
2022-09-07T17:13:16.161Z,27.59
2022-09-07T17:15:20.955Z,27.54
2022-09-07T17:17:26.007Z,27.47
2022-09-07T17:19:31.127Z,27.45
2022-09-07T17:21:41.936Z,27.38
2022-09-07T17:23:54.364Z,27.33
2022-09-07T17:26:07.113Z,27.30
2022-09-07T17:28:12.406Z,27.26
2022-09-07T17:30:20.733Z,27.21
2022-09-07T17:32:27.471Z,27.18
2022-09-07T17:34:32.636Z,27.15
2022-09-07T17:36:40.980Z,27.12
2022-09-07T17:41:12.789Z,27.00
2022-09-07T17:45:42.369Z,26.85
2022-09-07T17:47:49.538Z,26.78
2022-09-07T17:49:54.351Z,26.77
2022-09-07T17:52:02.288Z,26.76
2022-09-07T17:54:11.162Z,26.72
2022-09-07T17:56:18.635Z,26.69
2022-09-07T17:58:23.811Z,26.66
2022-09-07T18:00:28.827Z,26.64
2022-09-07T18:02:33.634Z,26.57
2022-09-07T18:04:38.500Z,26.53
2022-09-07T18:06:43.838Z,26.47
2022-09-07T18:08:53.195Z,26.42
2022-09-07T18:13:35.024Z,26.33
2022-09-07T18:15:42.496Z,26.29
2022-09-07T18:17:49.790Z,26.27
2022-09-07T18:19:54.773Z,26.29
2022-09-07T18:21:59.458Z,26.24
2022-09-07T18:24:08.922Z,26.26
2022-09-07T18:26:13.811Z,26.26
2022-09-07T18:30:43.064Z,26.13
2022-09-07T18:32:47.853Z,26.04
2022-09-07T18:34:52.618Z,25.99
2022-09-07T18:36:58.280Z,25.98
2022-09-07T18:39:06.864Z,26.00
2022-09-07T18:41:14.214Z,25.95
2022-09-07T18:43:18.967Z,25.92
2022-09-07T18:45:27.504Z,25.88
2022-09-07T18:47:32.673Z,25.85
2022-09-07T18:49:37.557Z,25.77
2022-09-07T18:54:09.533Z,25.59
2022-09-07T18:56:17.286Z,25.46
2022-09-07T18:58:22.118Z,25.45
2022-09-07T19:00:26.998Z,25.46
2022-09-07T19:02:31.847Z,25.45
2022-09-07T19:07:01.519Z,25.38
2022-09-07T19:09:09.249Z,25.34
2022-09-07T19:11:16.256Z,25.36
2022-09-07T19:13:21.060Z,25.33
2022-09-07T19:15:25.910Z,25.32
2022-09-07T19:17:30.692Z,25.28
2022-09-07T19:19:35.685Z,25.24
2022-09-07T19:21:46.498Z,25.15
2022-09-07T19:23:56.610Z,25.15
2022-09-07T19:26:05.143Z,25.08
2022-09-07T19:28:10.014Z,25.07
2022-09-07T19:30:15.603Z,25.07
2022-09-07T19:32:20.775Z,25.04
2022-09-07T19:34:25.914Z,25.05
2022-09-07T19:36:32.653Z,25.01
2022-09-07T19:38:37.976Z,24.93
2022-09-07T19:40:42.822Z,24.85
2022-09-07T19:42:50.178Z,24.78
2022-09-07T19:44:55.384Z,24.71
2022-09-07T19:47:00.496Z,24.68
2022-09-07T19:49:12.056Z,24.63
2022-09-07T19:51:18.560Z,24.60
2022-09-07T19:53:23.641Z,24.60
2022-09-07T19:55:28.459Z,24.61
2022-09-07T19:57:33.284Z,24.58
2022-09-07T19:59:40.686Z,24.54
2022-09-07T20:01:48.508Z,24.48
2022-09-07T20:03:59.400Z,24.43
2022-09-07T20:06:08.088Z,24.39
2022-09-07T20:08:12.866Z,24.39
2022-09-07T20:10:18.250Z,24.37
2022-09-07T20:12:23.082Z,24.38
2022-09-07T20:14:27.939Z,24.38
2022-09-07T20:16:38.152Z,24.32
2022-09-07T20:18:44.224Z,24.27
2022-09-07T20:20:53.060Z,24.24
2022-09-07T20:22:57.881Z,24.24
2022-09-07T20:25:02.657Z,24.21
2022-09-07T20:27:07.949Z,24.18
2022-09-07T20:29:29.217Z,24.20
2022-09-07T20:31:37.035Z,24.23
2022-09-07T20:33:42.737Z,24.29
2022-09-07T20:35:47.827Z,24.33
2022-09-07T20:37:52.446Z,24.31
2022-09-07T20:39:57.794Z,24.30
2022-09-07T20:42:02.795Z,24.28
2022-09-07T20:44:07.392Z,24.21
2022-09-07T20:46:12.417Z,24.20
2022-09-07T20:48:20.080Z,24.22
2022-09-07T20:50:26.107Z,24.20
2022-09-07T20:52:30.853Z,24.22
2022-09-07T20:54:37.770Z,24.23
2022-09-07T20:56:42.686Z,24.30
2022-09-07T20:58:49.659Z,24.32
2022-09-07T21:00:54.963Z,24.35
2022-09-07T21:02:59.879Z,24.39
2022-09-07T21:05:08.016Z,24.45
2022-09-07T21:07:12.892Z,24.47
2022-09-07T21:09:17.502Z,24.39
2022-09-07T21:11:24.504Z,24.38
2022-09-07T21:13:29.352Z,24.36
2022-09-07T21:15:34.130Z,24.31
2022-09-07T21:17:38.882Z,24.31
2022-09-07T21:19:43.594Z,24.31
2022-09-07T21:21:52.639Z,24.31
2022-09-07T21:23:59.338Z,24.32
2022-09-07T21:26:05.132Z,24.31
2022-09-07T21:28:09.904Z,24.29
2022-09-07T21:30:16.297Z,24.28
2022-09-07T21:32:21.068Z,24.25
2022-09-07T21:34:27.404Z,24.21
2022-09-07T21:36:34.120Z,24.18
2022-09-07T21:38:42.897Z,24.21
2022-09-07T21:40:47.823Z,24.18
2022-09-07T21:42:54.244Z,24.18
2022-09-07T21:44:58.980Z,24.20
2022-09-07T21:47:03.842Z,24.18
2022-09-07T21:49:08.912Z,24.14
2022-09-07T21:51:13.437Z,24.04
2022-09-07T21:53:18.388Z,23.95
2022-09-07T21:55:25.818Z,23.88
2022-09-07T21:57:30.551Z,23.83
2022-09-07T21:59:35.398Z,23.77
2022-09-07T22:01:40.964Z,23.73
2022-09-07T22:03:46.703Z,23.67
2022-09-07T22:05:53.695Z,23.64
2022-09-07T22:07:58.479Z,23.62
2022-09-07T22:10:03.608Z,23.60
2022-09-07T22:12:11.306Z,23.61
2022-09-07T22:14:16.889Z,23.60
2022-09-07T22:16:22.150Z,23.60
2022-09-07T22:18:27.067Z,23.62
2022-09-07T22:20:31.869Z,23.63
2022-09-07T22:22:37.144Z,23.63
2022-09-07T22:24:41.940Z,23.66
2022-09-07T22:26:47.019Z,23.68
2022-09-07T22:28:55.469Z,23.69
2022-09-07T22:31:10.377Z,23.69
2022-09-07T22:33:15.236Z,23.68
2022-09-07T22:35:21.588Z,23.63
2022-09-07T22:37:26.803Z,23.55
2022-09-07T22:39:31.849Z,23.44
2022-09-07T22:41:38.270Z,23.36
2022-09-07T22:43:43.677Z,23.31
2022-09-07T22:45:52.110Z,23.28
2022-09-07T22:47:57.439Z,23.30
2022-09-07T22:50:02.485Z,23.33
2022-09-07T22:52:07.055Z,23.33
2022-09-07T22:54:12.132Z,23.36
2022-09-07T22:56:18.736Z,23.38
2022-09-07T22:58:23.814Z,23.37
2022-09-07T23:00:28.261Z,23.32
2022-09-07T23:02:35.695Z,23.31
2022-09-07T23:04:40.567Z,23.30
2022-09-07T23:06:46.081Z,23.28
2022-09-07T23:08:50.865Z,23.31
2022-09-07T23:10:55.824Z,23.34
2022-09-07T23:13:00.565Z,23.34
2022-09-07T23:15:05.397Z,23.38
2022-09-07T23:17:10.158Z,23.38
2022-09-07T23:19:19.665Z,23.39
2022-09-07T23:21:24.449Z,23.38
2022-09-07T23:23:29.938Z,23.40
2022-09-07T23:25:37.788Z,23.42
2022-09-07T23:27:42.530Z,23.42
2022-09-07T23:29:47.357Z,23.38
2022-09-07T23:31:52.170Z,23.38
2022-09-07T23:33:57.420Z,23.37
2022-09-07T23:36:07.441Z,23.38
2022-09-07T23:38:12.415Z,23.20
2022-09-07T23:40:17.478Z,23.16
2022-09-07T23:42:22.201Z,23.14
2022-09-07T23:44:26.943Z,23.12
2022-09-07T23:46:31.693Z,23.10
2022-09-07T23:48:36.456Z,23.11
2022-09-07T23:50:41.438Z,23.11
2022-09-07T23:52:48.775Z,23.13
2022-09-07T23:54:53.846Z,23.14
2022-09-07T23:56:58.384Z,23.11
2022-09-07T23:59:03.129Z,23.14
